createdAt,value
2018-12-08T16:04:48.230Z,98919.83
2018-12-08T16:07:14.250Z,98918.60
2018-12-08T16:09:40.283Z,98915.70
2018-12-08T16:12:06.380Z,98922.48
2018-12-08T16:14:32.433Z,98925.61
2018-12-08T16:16:58.494Z,98918.23
2018-12-08T16:19:24.552Z,98922.16
2018-12-08T16:21:50.588Z,98925.24
2018-12-08T16:24:16.596Z,98933.40
2018-12-08T16:26:42.640Z,98916.55
2018-12-08T16:29:08.651Z,98917.54
2018-12-08T16:31:34.688Z,98916.04
2018-12-08T16:34:00.697Z,98931.33
2018-12-08T16:36:26.733Z,98908.17
2018-12-08T16:38:52.765Z,98924.97
2018-12-08T16:41:18.804Z,98922.06
2018-12-08T16:43:44.788Z,98930.71
2018-12-08T16:46:10.820Z,98913.25
2018-12-08T16:48:36.824Z,98927.02
2018-12-08T16:51:02.765Z,98919.25
2018-12-08T16:53:28.773Z,98918.62
2018-12-08T16:55:54.821Z,98919.30
2018-12-08T16:58:20.808Z,98911.70
2018-12-08T17:00:46.801Z,98902.72
2018-12-08T17:03:12.726Z,98911.50
2018-12-08T17:05:38.708Z,98908.66
2018-12-08T17:08:04.728Z,98915.66
2018-12-08T17:10:30.757Z,98899.63
2018-12-08T17:12:56.849Z,98907.88
2018-12-08T17:15:22.992Z,98899.36
2018-12-08T17:17:49.011Z,98900.30
2018-12-08T17:20:15.124Z,98906.75
2018-12-08T17:22:41.064Z,98902.35
2018-12-08T17:25:07.069Z,98902.87
2018-12-08T17:27:33.121Z,98920.57
2018-12-08T17:29:59.216Z,98904.78
2018-12-08T17:32:25.163Z,98907.00
2018-12-08T17:34:51.181Z,98907.40
2018-12-08T17:37:17.209Z,98906.59
2018-12-08T17:39:43.196Z,98913.83
2018-12-08T17:42:09.144Z,98910.80
2018-12-08T17:44:35.152Z,98895.94
2018-12-08T17:47:01.209Z,98908.24
2018-12-08T17:49:27.188Z,98900.16
2018-12-08T17:51:53.242Z,98902.34
2018-12-08T17:54:19.242Z,98898.58
2018-12-08T17:56:45.180Z,98902.42
2018-12-08T17:59:11.185Z,98904.16
2018-12-08T18:01:37.233Z,98900.34
2018-12-08T18:04:03.361Z,98894.97
2018-12-08T18:06:29.692Z,98896.81
2018-12-08T18:08:55.688Z,98887.90
2018-12-08T18:11:21.740Z,98890.08
2018-12-08T18:13:47.724Z,98890.73
2018-12-08T18:16:13.674Z,98895.82
2018-12-08T18:18:39.696Z,98886.58
2018-12-08T18:21:05.835Z,98877.78
2018-12-08T18:23:32.053Z,98878.52
2018-12-08T18:25:58.054Z,98881.58
2018-12-08T18:28:24.101Z,98879.80
2018-12-08T18:30:50.097Z,98878.39
2018-12-08T18:33:16.058Z,98878.02
2018-12-08T18:35:42.049Z,98883.30
2018-12-08T18:38:08.196Z,98874.81
2018-12-08T18:40:34.305Z,98869.39
2018-12-08T18:43:00.445Z,98866.89
2018-12-08T18:45:26.441Z,98861.27
2018-12-08T18:47:52.383Z,98858.96
2018-12-08T18:50:18.489Z,98855.13
2018-12-08T18:52:44.545Z,98853.55
2018-12-08T18:55:10.537Z,98849.28
2018-12-08T18:57:36.600Z,98859.33
2018-12-08T19:00:03.572Z,98847.08
2018-12-08T19:02:29.649Z,98840.31
2018-12-08T19:04:55.650Z,98851.50
2018-12-08T19:07:21.700Z,98854.94
2018-12-08T19:09:47.697Z,98840.84
2018-12-08T19:12:13.652Z,98855.53
2018-12-08T19:14:39.744Z,98849.89
2018-12-08T19:17:05.764Z,98848.34
2018-12-08T19:19:31.705Z,98847.91
2018-12-08T19:21:57.713Z,98848.28
2018-12-08T19:24:23.756Z,98850.19
2018-12-08T19:26:49.762Z,98850.78
2018-12-08T19:29:15.797Z,98842.80
2018-12-08T19:31:41.825Z,98839.47
2018-12-08T19:34:07.950Z,98833.06
2018-12-08T19:36:33.949Z,98846.59
2018-12-08T19:38:59.993Z,98844.25
2018-12-08T19:41:26.000Z,98825.67
2018-12-08T19:43:52.045Z,98829.30
2018-12-08T19:46:18.044Z,98827.75
2018-12-08T19:48:44.089Z,98827.89
2018-12-08T19:51:10.088Z,98818.61
2018-12-08T19:53:36.128Z,98813.92
2018-12-08T19:56:02.132Z,98811.22
2018-12-08T19:58:28.073Z,98814.29
2018-12-08T20:00:54.080Z,98812.17
2018-12-08T20:03:20.036Z,98809.23
2018-12-08T20:05:46.016Z,98800.92
2018-12-08T20:08:12.061Z,98789.67
2018-12-08T20:10:38.068Z,98788.12
2018-12-08T20:13:04.117Z,98779.77
2018-12-08T20:15:30.221Z,98778.41
2018-12-08T20:17:56.368Z,98772.80
2018-12-08T20:20:22.389Z,98775.08
2018-12-08T20:22:48.385Z,98766.77
2018-12-08T20:25:14.324Z,98767.69
2018-12-08T20:27:40.340Z,98767.89
2018-12-08T20:30:07.004Z,98752.25
2018-12-08T20:32:32.984Z,98740.20
2018-12-08T20:34:58.934Z,98735.13
2018-12-08T20:37:24.936Z,98736.48
2018-12-08T20:39:50.980Z,98726.81
2018-12-08T20:42:16.980Z,98723.13
2018-12-08T20:44:43.025Z,98716.55
2018-12-08T20:47:09.029Z,98715.20
2018-12-08T20:49:35.064Z,98710.21
2018-12-08T20:52:01.073Z,98700.61
2018-12-08T20:54:27.120Z,98693.75
2018-12-08T20:56:53.122Z,98697.61
2018-12-08T20:59:19.156Z,98691.21
2018-12-08T21:01:45.164Z,98673.00
2018-12-08T21:04:11.203Z,98670.66
2018-12-08T21:06:37.208Z,98665.03
2018-12-08T21:09:03.908Z,98665.98
2018-12-08T21:11:29.874Z,98654.94
2018-12-08T21:13:55.920Z,98651.80
2018-12-08T21:16:21.916Z,98646.63
2018-12-08T21:18:47.972Z,98636.53
2018-12-08T21:21:13.962Z,98630.14
2018-12-08T21:23:39.990Z,98621.59
2018-12-08T21:26:06.036Z,98617.31
2018-12-08T21:28:32.029Z,98613.84
2018-12-08T21:30:57.976Z,98614.41
2018-12-08T21:33:24.176Z,98610.72
2018-12-08T21:35:50.240Z,98602.18
2018-12-08T21:38:16.224Z,98592.72
2018-12-08T21:40:42.276Z,98584.04
2018-12-08T21:43:08.277Z,98585.56
2018-12-08T21:45:34.316Z,98581.64
2018-12-08T21:48:00.325Z,98575.05
2018-12-08T21:50:26.360Z,98572.55
2018-12-08T21:52:52.364Z,98574.83
2018-12-08T21:55:18.516Z,98574.83
2018-12-08T21:57:44.615Z,98572.48
2018-12-08T22:00:10.664Z,98575.55
2018-12-08T22:02:36.659Z,98554.12
2018-12-08T22:05:02.938Z,98564.69
2018-12-08T22:07:28.913Z,98566.03
2018-12-08T22:09:54.952Z,98566.40
2018-12-08T22:12:20.952Z,98559.45
2018-12-08T22:14:46.905Z,98559.22
2018-12-08T22:17:12.900Z,98556.88
2018-12-08T22:19:38.941Z,98536.41
2018-12-08T22:22:04.944Z,98529.78
2018-12-08T22:24:30.869Z,98512.21
2018-12-08T22:26:56.920Z,98505.06
2018-12-08T22:29:22.912Z,98488.84
2018-12-08T22:31:48.953Z,98458.88
2018-12-08T22:34:14.956Z,98455.78
2018-12-08T22:36:40.909Z,98434.72
2018-12-08T22:39:06.902Z,98445.89
2018-12-08T22:41:33.048Z,98446.45
2018-12-08T22:43:59.044Z,98440.58
2018-12-08T22:46:24.989Z,98440.27
2018-12-08T22:48:51.096Z,98428.84
2018-12-08T22:51:17.139Z,98424.59
2018-12-08T22:53:43.144Z,98409.86
2018-12-08T22:56:09.184Z,98399.64
2018-12-08T22:58:35.188Z,98387.25
2018-12-08T23:01:01.360Z,98394.02
2018-12-08T23:03:27.274Z,98381.66
2018-12-08T23:05:53.380Z,98378.76
2018-12-08T23:08:19.380Z,98368.88
2018-12-08T23:10:45.437Z,98355.14
2018-12-08T23:13:11.437Z,98349.73
2018-12-08T23:15:37.448Z,98344.92
2018-12-08T23:18:03.400Z,98341.02
2018-12-08T23:20:29.399Z,98328.85
2018-12-08T23:22:55.532Z,98329.22
2018-12-08T23:25:21.543Z,98322.47
2018-12-08T23:27:47.685Z,98316.87
2018-12-08T23:30:13.689Z,98306.63
2018-12-08T23:32:39.733Z,98294.02
2018-12-08T23:35:05.732Z,98285.15
2018-12-08T23:37:31.684Z,98284.36
2018-12-08T23:39:57.799Z,98282.22
2018-12-08T23:42:23.924Z,98271.03
2018-12-08T23:44:49.928Z,98264.84
2018-12-08T23:47:15.868Z,98260.56
2018-12-08T23:49:41.872Z,98256.50
2018-12-08T23:52:07.812Z,98248.20
2018-12-08T23:54:33.829Z,98250.49
2018-12-08T23:56:59.992Z,98245.09
2018-12-08T23:59:25.994Z,98242.98
